createdAt,value
2022-09-12T00:01:48.942Z,100393.22
2022-09-12T00:04:15.337Z,100389.25
2022-09-12T00:06:42.111Z,100387.22
2022-09-12T00:09:11.503Z,100392.03
2022-09-12T00:11:40.561Z,100385.50
2022-09-12T00:14:09.034Z,100388.09
2022-09-12T00:16:37.013Z,100384.06
2022-09-12T00:19:05.201Z,100385.28
2022-09-12T00:21:35.374Z,100379.72
2022-09-12T00:24:02.019Z,100377.06
2022-09-12T00:26:28.740Z,100379.06
2022-09-12T00:28:55.124Z,100379.00
2022-09-12T00:31:24.965Z,100372.78
2022-09-12T00:33:52.589Z,100367.75
2022-09-12T00:36:24.857Z,100358.94
2022-09-12T00:38:51.821Z,100363.19
2022-09-12T00:41:24.100Z,100358.50
2022-09-12T00:43:56.577Z,100368.03
2022-09-12T00:46:32.345Z,100361.81
2022-09-12T00:49:07.441Z,100365.16
2022-09-12T00:51:36.546Z,100365.72
2022-09-12T00:54:09.055Z,100363.31
2022-09-12T00:56:36.684Z,100357.69
2022-09-12T00:59:10.924Z,100360.72
2022-09-12T01:01:39.216Z,100357.81
2022-09-12T01:04:05.642Z,100367.03
2022-09-12T01:06:38.794Z,100362.75
2022-09-12T01:09:05.816Z,100368.38
2022-09-12T01:11:36.059Z,100362.41
2022-09-12T01:14:02.526Z,100363.03
2022-09-12T01:16:29.523Z,100356.94
2022-09-12T01:19:00.045Z,100355.00
2022-09-12T01:21:59.434Z,100347.66
2022-09-12T01:24:34.823Z,100356.19
2022-09-12T01:27:29.051Z,100350.97
2022-09-12T01:30:05.402Z,100344.47
2022-09-12T01:32:43.648Z,100342.41
2022-09-12T01:35:19.806Z,100342.41
2022-09-12T01:38:04.460Z,100342.09
2022-09-12T01:40:49.082Z,100331.25
2022-09-12T01:43:31.743Z,100340.78
2022-09-12T01:46:21.026Z,100333.28
2022-09-12T01:48:55.266Z,100338.94
2022-09-12T01:51:51.850Z,100341.00
2022-09-12T01:54:29.791Z,100337.88
2022-09-12T01:57:00.393Z,100332.34
2022-09-12T01:59:33.981Z,100333.72
2022-09-12T02:02:07.097Z,100336.38
2022-09-12T02:04:46.795Z,100331.09
2022-09-12T02:07:21.365Z,100334.28
2022-09-12T02:09:54.986Z,100327.97
2022-09-12T02:12:27.466Z,100319.19
2022-09-12T02:15:01.125Z,100326.25
2022-09-12T02:17:29.581Z,100324.84
2022-09-12T02:20:03.019Z,100325.16
2022-09-12T02:22:31.581Z,100328.50
2022-09-12T02:25:00.830Z,100327.25
2022-09-12T02:27:37.794Z,100324.78
2022-09-12T02:30:06.475Z,100325.00
2022-09-12T02:32:45.246Z,100321.78
2022-09-12T02:35:22.357Z,100316.31
2022-09-12T02:37:58.427Z,100322.47
2022-09-12T02:40:25.512Z,100313.53
2022-09-12T02:42:52.241Z,100315.53
2022-09-12T02:45:18.998Z,100310.84
2022-09-12T02:47:58.720Z,100315.53
2022-09-12T02:50:25.519Z,100307.63
2022-09-12T02:52:54.630Z,100308.38
2022-09-12T02:55:21.473Z,100303.78
2022-09-12T02:57:47.847Z,100309.13
2022-09-12T03:00:14.633Z,100313.59
2022-09-12T03:03:04.524Z,100309.38
2022-09-12T03:05:51.436Z,100307.44
2022-09-12T03:08:38.035Z,100306.13
2022-09-12T03:11:10.486Z,100311.66
2022-09-12T03:13:36.760Z,100318.53
2022-09-12T03:16:33.960Z,100311.16
2022-09-12T03:19:15.849Z,100314.31
2022-09-12T03:22:08.486Z,100307.56
2022-09-12T03:24:45.156Z,100306.47
2022-09-12T03:27:22.733Z,100306.22
2022-09-12T03:29:50.859Z,100310.28
2022-09-12T03:32:17.195Z,100309.31
2022-09-12T03:34:43.580Z,100312.38
2022-09-12T03:37:09.962Z,100311.47
2022-09-12T03:39:36.286Z,100314.94
2022-09-12T03:42:02.800Z,100307.63
2022-09-12T03:44:29.203Z,100311.88
2022-09-12T03:46:55.584Z,100310.66
2022-09-12T03:49:21.915Z,100306.53
2022-09-12T03:51:48.257Z,100309.66
2022-09-12T03:54:14.573Z,100305.75
2022-09-12T03:56:41.503Z,100314.88
2022-09-12T03:59:08.239Z,100301.00
2022-09-12T04:01:34.729Z,100310.81
2022-09-12T04:04:01.430Z,100311.09
2022-09-12T04:06:27.801Z,100309.19
2022-09-12T04:08:55.178Z,100314.13
2022-09-12T04:11:22.557Z,100313.38
2022-09-12T04:13:49.038Z,100307.28
2022-09-12T04:16:16.540Z,100313.59
2022-09-12T04:18:43.617Z,100314.53
2022-09-12T04:21:15.867Z,100310.00
2022-09-12T04:23:42.953Z,100308.03
2022-09-12T04:26:13.349Z,100318.13
2022-09-12T04:28:40.251Z,100312.47
2022-09-12T04:31:09.857Z,100310.22
2022-09-12T04:33:36.475Z,100311.66
2022-09-12T04:36:07.672Z,100316.03
2022-09-12T04:38:35.697Z,100327.84
2022-09-12T04:41:20.407Z,100321.88
2022-09-12T04:43:51.688Z,100319.91
2022-09-12T04:46:20.286Z,100330.94
2022-09-12T04:48:47.854Z,100323.34
2022-09-12T04:51:17.144Z,100317.09
2022-09-12T04:53:49.290Z,100311.41
2022-09-12T04:56:15.760Z,100310.00
2022-09-12T04:58:42.362Z,100304.81
2022-09-12T05:01:14.283Z,100311.84
2022-09-12T05:03:43.327Z,100308.84
2022-09-12T05:06:14.174Z,100310.28
2022-09-12T05:08:40.938Z,100308.38
2022-09-12T05:11:13.091Z,100315.31
2022-09-12T05:13:40.085Z,100311.91
2022-09-12T05:16:07.904Z,100314.75
2022-09-12T05:18:35.979Z,100311.91
2022-09-12T05:21:07.993Z,100313.78
2022-09-12T05:23:34.355Z,100314.00
2022-09-12T05:26:02.265Z,100312.34
2022-09-12T05:28:34.491Z,100316.81
2022-09-12T05:31:06.876Z,100314.28
2022-09-12T05:33:37.626Z,100318.19
2022-09-12T05:36:06.359Z,100320.66
2022-09-12T05:38:35.592Z,100310.72
2022-09-12T05:41:14.661Z,100309.91
2022-09-12T05:43:43.879Z,100310.31
2022-09-12T05:46:16.305Z,100304.34
2022-09-12T05:48:44.495Z,100307.84
2022-09-12T05:51:19.101Z,100292.00
2022-09-12T05:53:53.385Z,100294.13
2022-09-12T05:56:23.275Z,100293.34
2022-09-12T05:58:58.264Z,100298.75
2022-09-12T06:01:26.206Z,100311.03
2022-09-12T06:03:54.492Z,100311.56
2022-09-12T06:06:24.504Z,100319.69
2022-09-12T06:08:53.171Z,100325.47
2022-09-12T06:11:22.919Z,100323.47
2022-09-12T06:13:50.982Z,100322.53
2022-09-12T06:16:22.939Z,100320.91
2022-09-12T06:18:54.038Z,100338.00
2022-09-12T06:21:22.834Z,100329.59
2022-09-12T06:23:49.344Z,100328.50
2022-09-12T06:26:17.669Z,100327.19
2022-09-12T06:28:45.212Z,100325.69
2022-09-12T06:31:18.487Z,100332.19
2022-09-12T06:33:48.780Z,100330.69
2022-09-12T06:36:18.286Z,100333.63
2022-09-12T06:38:46.264Z,100338.75
2022-09-12T06:41:13.611Z,100343.59
2022-09-12T06:43:41.519Z,100338.19
2022-09-12T06:46:09.565Z,100334.78
2022-09-12T06:48:41.607Z,100329.34
2022-09-12T06:51:14.073Z,100333.47
2022-09-12T06:53:41.315Z,100329.97
2022-09-12T06:56:10.253Z,100332.72
2022-09-12T06:58:38.569Z,100326.78
2022-09-12T07:01:06.578Z,100319.06
2022-09-12T07:03:33.840Z,100325.44
2022-09-12T07:06:06.202Z,100315.22
2022-09-12T07:08:34.056Z,100318.91
2022-09-12T07:11:11.043Z,100324.72
2022-09-12T07:13:38.428Z,100327.81
2022-09-12T07:16:05.761Z,100329.56
2022-09-12T07:18:33.341Z,100333.28
2022-09-12T07:21:01.867Z,100331.97
2022-09-12T07:23:29.840Z,100324.72
2022-09-12T07:25:58.374Z,100317.72
2022-09-12T07:28:29.359Z,100311.66
2022-09-12T07:30:56.150Z,100309.22
2022-09-12T07:33:29.426Z,100308.03
2022-09-12T07:36:01.256Z,100302.47
2022-09-12T07:38:27.631Z,100311.13
2022-09-12T07:40:54.076Z,100308.53
2022-09-12T07:43:20.455Z,100305.66
2022-09-12T07:45:46.794Z,100301.72
2022-09-12T07:48:13.846Z,100299.09
2022-09-12T07:50:44.987Z,100296.66
2022-09-12T07:53:11.586Z,100301.13
2022-09-12T07:55:37.942Z,100299.41
2022-09-12T07:58:04.359Z,100304.59
2022-09-12T08:00:35.815Z,100313.75
2022-09-12T08:03:07.209Z,100308.22
2022-09-12T08:05:33.538Z,100297.47
2022-09-12T08:07:59.883Z,100300.63
2022-09-12T08:10:26.243Z,100299.88
2022-09-12T08:12:52.630Z,100313.19
2022-09-12T08:15:20.227Z,100314.38
2022-09-12T08:17:46.673Z,100316.75
2022-09-12T08:20:13.120Z,100327.41
2022-09-12T08:22:40.648Z,100326.69
2022-09-12T08:25:08.634Z,100326.59
2022-09-12T08:27:34.977Z,100319.13
2022-09-12T08:30:01.452Z,100318.50
2022-09-12T08:32:28.052Z,100321.44
2022-09-12T08:34:54.487Z,100322.63
2022-09-12T08:37:20.812Z,100325.16
2022-09-12T08:39:47.823Z,100319.66
2022-09-12T08:42:31.618Z,100316.75
2022-09-12T08:45:20.888Z,100328.25
2022-09-12T08:47:48.739Z,100318.25
2022-09-12T08:50:21.964Z,100321.63
2022-09-12T08:52:58.519Z,100318.25
2022-09-12T08:55:27.535Z,100318.25
2022-09-12T08:57:54.235Z,100310.06
2022-09-12T09:00:21.528Z,100302.63
2022-09-12T09:03:20.259Z,100311.13
2022-09-12T09:06:07.013Z,100310.41
2022-09-12T09:08:43.565Z,100309.38
2022-09-12T09:11:50.836Z,100303.28
2022-09-12T09:14:48.198Z,100308.94
2022-09-12T09:17:38.697Z,100302.91
2022-09-12T09:20:30.104Z,100302.94
2022-09-12T09:22:59.725Z,100304.09
2022-09-12T09:25:57.984Z,100310.34
2022-09-12T09:28:33.806Z,100304.66
2022-09-12T09:31:00.405Z,100304.09
2022-09-12T09:33:33.598Z,100304.19
2022-09-12T09:36:06.347Z,100296.00
2022-09-12T09:38:48.190Z,100293.72
2022-09-12T09:41:33.776Z,100298.81
2022-09-12T09:44:00.985Z,100286.50
2022-09-12T09:46:27.899Z,100281.72
2022-09-12T09:48:55.397Z,100278.69
2022-09-12T09:51:28.420Z,100280.56
2022-09-12T09:54:01.705Z,100279.88
2022-09-12T09:56:33.463Z,100270.44
2022-09-12T09:59:08.834Z,100272.09
2022-09-12T10:01:35.294Z,100269.63
2022-09-12T10:04:01.804Z,100266.84
2022-09-12T10:06:34.262Z,100268.44
2022-09-12T10:09:08.896Z,100265.88
2022-09-12T10:11:36.308Z,100253.47
2022-09-12T10:14:04.462Z,100261.16
2022-09-12T10:16:48.259Z,100255.56
2022-09-12T10:19:34.070Z,100246.69
2022-09-12T10:22:00.982Z,100232.53
2022-09-12T10:24:32.780Z,100234.13
2022-09-12T10:27:15.477Z,100242.63
2022-09-12T10:29:48.362Z,100229.84
2022-09-12T10:32:36.053Z,100233.38
2022-09-12T10:35:18.715Z,100234.13
2022-09-12T10:37:58.445Z,100231.78
2022-09-12T10:40:32.507Z,100224.88
2022-09-12T10:43:00.327Z,100223.44
2022-09-12T10:45:37.541Z,100227.97
2022-09-12T10:48:31.223Z,100217.88
2022-09-12T10:51:01.323Z,100215.88
2022-09-12T10:53:34.475Z,100217.78
2022-09-12T10:56:09.201Z,100217.16
2022-09-12T10:59:00.218Z,100212.44
2022-09-12T11:01:32.540Z,100208.03
2022-09-12T11:04:08.000Z,100205.16
2022-09-12T11:06:47.021Z,100203.91
2022-09-12T11:09:21.920Z,100206.97
2022-09-12T11:12:13.377Z,100215.16
2022-09-12T11:14:46.074Z,100208.84
2022-09-12T11:17:41.479Z,100201.56
2022-09-12T11:20:14.019Z,100212.59
2022-09-12T11:22:46.299Z,100203.88
2022-09-12T11:25:28.410Z,100199.78
2022-09-12T11:28:19.779Z,100198.13
2022-09-12T11:31:06.491Z,100192.88
2022-09-12T11:33:42.832Z,100188.63
2022-09-12T11:36:22.000Z,100184.97
2022-09-12T11:38:58.346Z,100194.59
2022-09-12T11:41:38.191Z,100192.44
2022-09-12T11:44:31.570Z,100186.28
2022-09-12T11:46:59.375Z,100185.97
2022-09-12T11:49:35.575Z,100181.53
2022-09-12T11:52:18.060Z,100178.41
2022-09-12T11:54:53.863Z,100173.16
2022-09-12T11:57:39.210Z,100162.09
2022-09-12T12:00:17.763Z,100158.44
2022-09-12T12:03:13.705Z,100158.00
2022-09-12T12:05:53.299Z,100159.38
2022-09-12T12:08:23.285Z,100159.38
2022-09-12T12:10:59.711Z,100152.91
2022-09-12T12:13:40.127Z,100157.72
2022-09-12T12:16:14.181Z,100151.22
2022-09-12T12:18:42.810Z,100152.97
2022-09-12T12:21:20.983Z,100147.47
2022-09-12T12:24:08.774Z,100142.38
2022-09-12T12:26:58.666Z,100143.31
2022-09-12T12:29:31.038Z,100140.53
2022-09-12T12:32:07.669Z,100130.84
2022-09-12T12:34:44.011Z,100132.41
2022-09-12T12:37:19.390Z,100136.34
2022-09-12T12:39:49.739Z,100139.22
2022-09-12T12:42:37.471Z,100124.59
2022-09-12T12:45:06.900Z,100127.47
2022-09-12T12:47:40.957Z,100113.19
2022-09-12T12:50:09.989Z,100114.13
2022-09-12T12:52:47.653Z,100112.28
2022-09-12T12:55:26.316Z,100111.31
2022-09-12T12:57:55.829Z,100105.03
2022-09-12T13:00:25.373Z,100099.91
2022-09-12T13:03:01.128Z,100107.50
2022-09-12T13:05:30.537Z,100092.81
2022-09-12T13:08:10.098Z,100101.41
2022-09-12T13:10:37.696Z,100086.94
2022-09-12T13:13:08.613Z,100089.38
2022-09-12T13:15:38.057Z,100087.22
2022-09-12T13:18:10.481Z,100082.94
2022-09-12T13:20:46.929Z,100085.94
2022-09-12T13:23:22.483Z,100075.91
2022-09-12T13:25:53.670Z,100070.19
2022-09-12T13:28:20.026Z,100066.34
2022-09-12T13:31:24.392Z,100054.88
2022-09-12T13:33:58.062Z,100046.81
2022-09-12T13:36:32.410Z,100050.34
2022-09-12T13:39:09.504Z,100056.88
2022-09-12T13:42:03.423Z,100055.59
2022-09-12T13:44:31.547Z,100051.59
2022-09-12T13:47:01.003Z,100052.13
2022-09-12T13:52:15.563Z,100044.22
2022-09-12T13:54:45.803Z,100027.91
2022-09-12T13:57:33.765Z,100028.53
2022-09-12T14:00:02.902Z,100029.53
2022-09-12T14:02:31.171Z,100032.94
2022-09-12T14:05:10.206Z,100035.91
2022-09-12T14:07:58.392Z,100030.09
2022-09-12T14:10:30.135Z,100028.94
2022-09-12T14:12:57.267Z,100021.31
2022-09-12T14:15:27.136Z,100025.06
2022-09-12T14:18:01.169Z,100015.72
2022-09-12T14:20:33.848Z,100008.72
2022-09-12T14:23:03.473Z,100006.53
2022-09-12T14:25:37.372Z,100017.88
2022-09-12T14:28:04.107Z,100019.75
2022-09-12T14:30:32.786Z,100005.53
2022-09-12T14:33:11.369Z,99996.53
2022-09-12T14:35:59.144Z,99991.13
2022-09-12T14:38:34.138Z,99987.75
2022-09-12T14:41:08.677Z,99985.47
2022-09-12T14:43:38.862Z,99985.97
2022-09-12T14:46:30.442Z,99988.09
2022-09-12T14:49:20.461Z,99993.00
2022-09-12T14:51:56.325Z,99986.13
2022-09-12T14:54:36.037Z,99982.69
2022-09-12T14:57:06.417Z,99974.94
2022-09-12T14:59:35.783Z,99980.78
2022-09-12T15:02:20.581Z,99981.25
2022-09-12T15:04:52.789Z,99973.78
2022-09-12T15:07:28.365Z,99976.59
2022-09-12T15:09:54.781Z,99973.50
2022-09-12T15:12:22.254Z,99974.66
2022-09-12T15:14:48.647Z,99964.47
2022-09-12T15:17:18.859Z,99968.59
2022-09-12T15:19:45.281Z,99959.56
2022-09-12T15:22:13.756Z,99961.44
2022-09-12T15:24:40.181Z,99966.78
2022-09-12T15:27:12.032Z,99958.63
2022-09-12T15:29:38.984Z,99965.22
2022-09-12T15:32:06.744Z,99954.63
2022-09-12T15:34:33.520Z,99959.34
2022-09-12T15:37:00.123Z,99956.06
2022-09-12T15:39:27.459Z,99946.56
2022-09-12T15:41:54.050Z,99945.03
2022-09-12T15:44:20.706Z,99948.19
2022-09-12T15:46:47.150Z,99943.06
2022-09-12T15:49:13.809Z,99936.00
2022-09-12T15:51:40.212Z,99927.16
2022-09-12T15:54:06.556Z,99934.03
2022-09-12T15:56:32.911Z,99935.03
2022-09-12T15:59:00.221Z,99935.44
2022-09-12T16:01:29.076Z,99936.16
2022-09-12T16:03:55.594Z,99934.59
2022-09-12T16:06:22.492Z,99934.19
2022-09-12T16:08:49.316Z,99928.44
2022-09-12T16:11:26.553Z,99934.31
2022-09-12T16:13:54.635Z,99931.88
2022-09-12T16:16:21.617Z,99931.59
2022-09-12T16:18:48.246Z,99921.72
2022-09-12T16:21:15.664Z,99931.00
2022-09-12T16:23:43.539Z,99921.69
2022-09-12T16:26:09.911Z,99908.97
2022-09-12T16:28:36.379Z,99902.81
2022-09-12T16:31:05.603Z,99901.41
2022-09-12T16:33:32.851Z,99899.94
2022-09-12T16:36:10.390Z,99908.84
2022-09-12T16:38:47.201Z,99906.53
2022-09-12T16:41:15.107Z,99901.69
2022-09-12T16:43:42.882Z,99906.13
2022-09-12T16:46:11.752Z,99905.69
2022-09-12T16:48:50.957Z,99904.97
2022-09-12T16:51:22.380Z,99904.81
2022-09-12T16:53:49.464Z,99903.19
2022-09-12T16:56:15.916Z,99904.91
2022-09-12T16:58:43.112Z,99901.91
2022-09-12T17:01:12.525Z,99901.03
2022-09-12T17:03:39.070Z,99899.88
2022-09-12T17:06:14.232Z,99908.97
2022-09-12T17:08:43.697Z,99903.78
2022-09-12T17:11:12.612Z,99907.50
2022-09-12T17:14:03.183Z,99901.66
2022-09-12T17:16:27.251Z,99896.31
2022-09-12T17:18:54.623Z,99894.66
2022-09-12T17:21:22.127Z,99896.72
2022-09-12T17:23:48.970Z,99900.00
2022-09-12T17:26:15.520Z,99905.00
2022-09-12T17:28:42.275Z,99905.38
2022-09-12T17:31:11.608Z,99904.16
2022-09-12T17:33:39.137Z,99908.31
2022-09-12T17:36:16.992Z,99909.25
2022-09-12T17:38:45.404Z,99901.84
2022-09-12T17:41:15.943Z,99889.44
2022-09-12T17:43:46.327Z,99892.16
2022-09-12T17:46:13.526Z,99889.97
2022-09-12T17:48:39.931Z,99895.00
2022-09-12T17:51:15.109Z,99888.72
2022-09-12T17:53:42.890Z,99895.75
2022-09-12T17:56:10.748Z,99905.22
2022-09-12T17:58:38.022Z,99897.94
2022-09-12T18:01:29.994Z,99895.47
2022-09-12T18:04:00.435Z,99881.66
2022-09-12T18:06:28.645Z,99891.09
2022-09-12T18:08:55.326Z,99896.50
2022-09-12T18:11:21.758Z,99900.56
2022-09-12T18:13:48.190Z,99912.84
2022-09-12T18:16:14.698Z,99907.34
2022-09-12T18:18:41.183Z,99902.19
2022-09-12T18:21:10.266Z,99902.66
2022-09-12T18:23:36.651Z,99886.84
2022-09-12T18:26:06.301Z,99891.22
2022-09-12T18:28:37.762Z,99891.16
2022-09-12T18:31:09.262Z,99900.53
2022-09-12T18:33:35.622Z,99886.81
2022-09-12T18:36:06.066Z,99890.38
2022-09-12T18:38:32.916Z,99893.31
2022-09-12T18:41:07.732Z,99899.53
2022-09-12T18:43:34.336Z,99897.69
2022-09-12T18:46:05.314Z,99911.94
2022-09-12T18:48:35.263Z,99916.53
2022-09-12T18:51:06.712Z,99911.31
2022-09-12T18:53:34.616Z,99898.16
2022-09-12T18:56:12.057Z,99922.91
2022-09-12T18:58:40.571Z,99908.03
2022-09-12T19:01:12.298Z,99912.84
2022-09-12T19:03:39.143Z,99900.47
2022-09-12T19:06:11.719Z,99907.22
2022-09-12T19:08:38.766Z,99911.56
2022-09-12T19:11:06.867Z,99898.44
2022-09-12T19:13:36.483Z,99906.75
2022-09-12T19:16:04.695Z,99904.66
2022-09-12T19:18:33.963Z,99916.44
2022-09-12T19:21:01.367Z,99916.44
2022-09-12T19:23:27.778Z,99916.31
2022-09-12T19:25:58.960Z,99917.63
2022-09-12T19:28:26.221Z,99922.16
2022-09-12T19:30:53.515Z,99916.78
2022-09-12T19:33:20.662Z,99911.91
2022-09-12T19:35:47.455Z,99898.22
2022-09-12T19:38:14.056Z,99891.31
2022-09-12T19:40:40.605Z,99888.84
2022-09-12T19:43:07.567Z,99881.84
2022-09-12T19:45:33.967Z,99877.84
2022-09-12T19:48:00.315Z,99872.34
2022-09-12T19:50:27.490Z,99875.91
2022-09-12T19:52:53.918Z,99879.47
2022-09-12T19:55:20.388Z,99884.19
2022-09-12T19:57:46.847Z,99876.66
2022-09-12T20:00:14.106Z,99868.56
2022-09-12T20:02:40.486Z,99875.06
2022-09-12T20:05:07.137Z,99868.59
2022-09-12T20:07:33.493Z,99874.31
2022-09-12T20:09:59.805Z,99872.59
2022-09-12T20:12:26.140Z,99884.03
2022-09-12T20:14:52.497Z,99876.91
2022-09-12T20:17:19.470Z,99872.88
2022-09-12T20:19:45.891Z,99856.34
2022-09-12T20:22:12.300Z,99860.53
2022-09-12T20:24:38.646Z,99861.00
2022-09-12T20:27:04.999Z,99849.28
2022-09-12T20:29:31.410Z,99847.88
2022-09-12T20:31:57.824Z,99856.31
2022-09-12T20:34:24.197Z,99855.47
2022-09-12T20:36:50.734Z,99853.38
2022-09-12T20:39:20.731Z,99865.75
2022-09-12T20:41:47.487Z,99858.28
2022-09-12T20:44:14.666Z,99853.38
2022-09-12T20:46:41.533Z,99848.19
2022-09-12T20:49:08.853Z,99848.19
2022-09-12T20:51:38.725Z,99846.31
2022-09-12T20:54:06.636Z,99849.47
2022-09-12T20:56:34.965Z,99855.13
2022-09-12T20:59:01.713Z,99855.59
2022-09-12T21:01:30.044Z,99853.00
2022-09-12T21:03:56.780Z,99858.09
2022-09-12T21:06:23.590Z,99849.91
2022-09-12T21:08:51.018Z,99849.53
2022-09-12T21:11:19.032Z,99846.09
2022-09-12T21:13:46.006Z,99840.38
2022-09-12T21:16:18.125Z,99845.75
2022-09-12T21:18:44.694Z,99840.34
2022-09-12T21:21:12.861Z,99848.94
2022-09-12T21:23:39.515Z,99849.66
2022-09-12T21:26:07.485Z,99851.84
2022-09-12T21:28:34.261Z,99842.38
2022-09-12T21:31:00.776Z,99847.44
2022-09-12T21:33:27.968Z,99847.19
2022-09-12T21:35:54.965Z,99838.91
2022-09-12T21:38:21.350Z,99840.91
2022-09-12T21:40:47.792Z,99835.75
2022-09-12T21:43:14.301Z,99835.88
2022-09-12T21:45:40.819Z,99844.28
2022-09-12T21:48:07.523Z,99849.25
2022-09-12T21:50:34.312Z,99844.88
2022-09-12T21:53:00.653Z,99847.44
2022-09-12T21:55:27.352Z,99852.69
2022-09-12T21:57:54.805Z,99862.63
2022-09-12T22:00:21.839Z,99866.66
2022-09-12T22:02:48.801Z,99870.91
2022-09-12T22:05:15.453Z,99865.06
2022-09-12T22:07:42.053Z,99856.44
2022-09-12T22:10:09.125Z,99855.34
2022-09-12T22:12:35.488Z,99856.78
2022-09-12T22:15:17.507Z,99849.22
2022-09-12T22:17:48.177Z,99847.78
2022-09-12T22:20:14.610Z,99845.09
2022-09-12T22:22:59.619Z,99840.75
2022-09-12T22:25:25.961Z,99841.47
2022-09-12T22:27:52.945Z,99832.41
2022-09-12T22:30:20.843Z,99828.69
2022-09-12T22:32:49.544Z,99834.28
2022-09-12T22:35:17.441Z,99838.06
2022-09-12T22:37:44.283Z,99829.31
2022-09-12T22:40:11.670Z,99835.53
2022-09-12T22:42:38.312Z,99823.25
2022-09-12T22:45:05.930Z,99825.22
2022-09-12T22:47:32.289Z,99821.72
2022-09-12T22:49:58.796Z,99814.69
2022-09-12T22:52:25.149Z,99812.22
2022-09-12T22:54:51.501Z,99812.41
2022-09-12T22:57:18.030Z,99815.88
2022-09-12T22:59:44.406Z,99825.44
2022-09-12T23:02:10.745Z,99840.59
2022-09-12T23:04:37.572Z,99831.88
2022-09-12T23:07:03.973Z,99829.84
2022-09-12T23:09:35.117Z,99833.41
2022-09-12T23:12:01.965Z,99831.69
2022-09-12T23:14:29.509Z,99835.84
2022-09-12T23:16:55.880Z,99839.06
2022-09-12T23:19:22.351Z,99831.25
2022-09-12T23:21:48.700Z,99836.84
2022-09-12T23:24:15.037Z,99843.72
2022-09-12T23:26:41.366Z,99845.75
2022-09-12T23:29:08.996Z,99840.47
2022-09-12T23:31:35.537Z,99832.53
2022-09-12T23:34:05.760Z,99824.53
2022-09-12T23:36:33.257Z,99821.88
2022-09-12T23:38:59.749Z,99814.13
2022-09-12T23:41:26.135Z,99811.44
2022-09-12T23:43:52.571Z,99806.53
2022-09-12T23:46:19.947Z,99807.72
2022-09-12T23:48:46.517Z,99813.25
2022-09-12T23:51:13.540Z,99809.78
2022-09-12T23:53:41.270Z,99817.31
2022-09-12T23:56:07.920Z,99814.88
2022-09-12T23:58:34.429Z,99796.00
